Flight Track Log - Related Links

Times and Time Zones

All times are in EDT time to prevent confusion due to time zone crossing. See the N175HQ flight status page for this flight to view local times or setup timezone preferences in your user account.

Time Position Orientation Groundspeed Altitude Reporting Facility
EDT Latitude Longitude Course Direction KTS MPH feet Rate Location/Type
Sun 01:08:12 PM 39.8167 -104.7167 142° Southeast 179 206 6,900  Level Denver TRACON
Sun 01:09:12 PM 39.7667 -104.6667 142° Southeast 253 291 8,700 2,211 Climbing Denver TRACON
Sun 01:10:06 PM 39.7167 -104.6000 134° Southeast 298 343 11,100 2,400 Climbing Denver TRACON
Sun 01:10:27 PM 39.6906 -104.5850 156° South 306 352 11,700 2,458 Climbing Denver Center
Sun 01:11:29 PM 39.6667 -104.4625 104° East 345 397 14,500 2,177 Climbing Denver Center
Sun 01:12:31 PM 39.6667 -104.3231 90° East 382 440 16,200 2,274 Climbing Denver Center
Sun 01:13:33 PM 39.6675 -104.1597 90° East 415 478 19,200 2,323 Climbing Denver Center
Sun 01:14:35 PM 39.6697 -104.0017 89° East 448 516 21,000 2,081 Climbing Denver Center
Sun 01:15:37 PM 39.6739 -103.8381 88° East 454 522 23,500 2,032 Climbing Denver Center
Sun 01:16:39 PM 39.6461 -103.6658 102° East 452 520 25,200 1,548 Climbing Denver Center
Sun 01:17:41 PM 39.5817 -103.5161 119° Southeast 467 537 26,700 1,452 Climbing Denver Center
Sun 01:18:43 PM 39.5128 -103.3592 120° Southeast 489 563 28,200 1,500 Climbing Denver Center
Sun 01:19:45 PM 39.4431 -103.1992 119° Southeast 504 580 29,800 1,742 Climbing Denver Center
Sun 01:20:47 PM 39.3747 -103.0411 119° Southeast 500 575 31,800 1,561 Climbing Denver Center
Sun 01:21:48 PM 39.3058 -102.8850 120° Southeast 495 570 33,000 585 Climbing Denver Center
Sun 01:22:50 PM 39.2272 -102.7097 120° Southeast 494 568 33,000  Level Denver Center
Sun 01:23:52 PM 39.1614 -102.5597 119° Southeast 501 577 33,000  Level Denver Center
Sun 01:24:54 PM 39.0944 -102.4097 120° Southeast 505 581 33,000  Level Denver Center
Sun 01:25:56 PM 39.0167 -102.2369 120° Southeast 501 577 33,000  Level Denver Center
Sun 01:26:58 PM 38.9500 -102.0917 121° Southeast 496 571 33,000  Level Denver Center
Sun 01:27:59 PM 38.8731 -101.9200 120° Southeast 497 572 33,000 98 Level Denver Center
Sun 01:29:01 PM 38.8067 -101.7744 120° Southeast 493 567 33,200 581 Climbing Denver Center
Sun 01:30:03 PM 38.7281 -101.6044 121° Southeast 496 571 34,200 871 Climbing Denver Center
Sun 01:31:05 PM 38.6344 -101.4911 137° Southeast 481 554 35,000 387 Climbing Denver Center
Sun 01:32:07 PM 38.5369 -101.3872 140° Southeast 477 549 35,000  Level Denver Center
Sun 01:33:09 PM 38.4244 -101.2644 139° Southeast 475 547 35,000  Level Denver Center
Sun 01:34:10 PM 38.3275 -101.1608 140° Southeast 475 547 35,000  Level Denver Center
Sun 01:35:12 PM 38.2131 -101.0386 140° Southeast 479 551 35,000  Level Denver Center
Sun 01:36:14 PM 38.1158 -100.9344 140° Southeast 477 549 35,000  Level Denver Center
Sun 01:37:02 PM 38.0367 -100.8394 137° Southeast 482 555 35,000  Level Kansas City Center
Sun 01:38:04 PM 37.9444 -100.7206 135° Southeast 488 562 35,000  Level Kansas City Center
Sun 01:39:05 PM 37.8361 -100.5819 135° Southeast 490 564 35,000  Level Kansas City Center
Sun 01:40:08 PM 37.7417 -100.4650 136° Southeast 490 564 35,000  Level Kansas City Center
Sun 01:41:09 PM 37.6331 -100.3286 135° Southeast 490 564 35,000  Level Kansas City Center
Sun 01:42:13 PM 37.5397 -100.2128 135° Southeast 490 564 35,000  Level Kansas City Center
Sun 01:43:13 PM 37.4303 -100.0775 136° Southeast 492 566 35,000  Level Kansas City Center
Sun 01:44:16 PM 37.3361 -99.9619 136° Southeast 492 566 35,000  Level Kansas City Center
Sun 01:45:16 PM 37.2428 -99.8447 135° Southeast 495 570 35,000  Level Kansas City Center
Sun 01:46:20 PM 37.1333 -99.7106 136° Southeast 493 567 35,000  Level Kansas City Center
Sun 01:47:21 PM 37.0306 -99.5858 136° Southeast 490 564 35,000  Level Kansas City Center
Sun 01:48:22 PM 36.9322 -99.4656 136° Southeast 492 566 35,000  Level Kansas City Center
Sun 01:49:26 PM 36.8333 -99.3464 136° Southeast 491 565 35,000  Level Kansas City Center
Sun 01:50:27 PM 36.7344 -99.2275 136° Southeast 491 565 35,000  Level Kansas City Center
Sun 01:51:29 PM 36.6353 -99.1097 136° Southeast 490 564 35,000 -590 Level Kansas City Center
Sun 01:52:29 PM 36.5369 -98.9897 136° Southeast 491 565 33,800 -1,306 Descending Kansas City Center
Sun 01:53:33 PM 36.4367 -98.8725 137° Southeast 490 564 32,300 -2,226 Descending Kansas City Center
Sun 01:54:33 PM 36.3375 -98.7531 136° Southeast 491 565 29,200 -3,242 Descending Kansas City Center
Sun 01:55:37 PM 36.2197 -98.6125 136° Southeast 486 559 25,600 -3,072 Descending Kansas City Center
Sun 01:56:38 PM 36.1250 -98.5028 137° Southeast 469 540 22,800 -2,705 Descending Kansas City Center
Sun 01:57:39 PM 36.0350 -98.3964 136° Southeast 451 519 20,100 -2,688 Descending Kansas City Center
Sun 01:58:43 PM 35.9508 -98.2961 136° Southeast 427 491 17,200 -2,500 Descending Kansas City Center
Sun 01:59:39 PM 35.8686 -98.1997 136° Southeast 414 476 15,100 -2,118 Descending Fort Worth Center
Sun 02:00:25 PM 35.8128 -98.1378 138° Southeast 356 410 13,600 -1,869 Descending Fort Worth Center
Sun 02:00:40 PM 35.7983 -98.1172 131° Southeast 378 435 13,200 -1,970 Descending Fort Worth Center
Sun 02:01:32 PM 35.7403 -98.0528 138° Southeast 330 380 11,400 -1,664 Descending Fort Worth Center
Sun 02:02:39 PM 35.6739 -97.9756 137° Southeast 322 371 9,900 -1,537 Descending Fort Worth Center
Sun 02:03:33 PM 35.6139 -97.9089 138° Southeast 282 325 8,300 -1,878 Descending Fort Worth Center
Sun 02:04:34 PM 35.5767 -97.8194 117° Southeast 295 339 6,300 -1,869 Descending Fort Worth Center
Sun 02:05:35 PM 35.5475 -97.7275 111° Southeast 295 339 4,500 -1,240 Descending Fort Worth Center
Sun 02:06:35 PM 35.5250 -97.6483 109° East 224 258 3,800 -744 Descending Fort Worth Center
Sun 02:07:36 PM 35.4894 -97.6097 139° Southeast 153 176 3,000 -738 Descending Fort Worth Center
Sun 02:08:37 PM 35.4519 -97.6072 177° South 121 139 2,300 -694 Descending Fort Worth Center
Sun 02:09:37 PM 35.4164 -97.6097 183° South 125 144 1,600 -700 Descending Fort Worth Center

Login

Don't have an account? Register now (free) for customized features, flight alerts, and more!